Time;durP1;ratioP1;P1;durP2;ratioP2;P2;SDS_P1;SDS_P2;PMS_P1;PMS_P2;Temp;Humidity;BMP_temperature;BMP_pressure;BME280_temperature;BME280_humidity;BME280_pressure;Samples;Min_cycle;Max_cycle;Signal;HPM_P1;HPM_P2
2022/04/28 00:02:12;;;;;;;16.70;7.07;;;;;;;5.24;100.00;102991.03;5078324;28;20043;-55
2022/04/28 00:04:38;;;;;;;14.13;6.60;;;;;;;5.19;100.00;102995.34;5089145;28;20102;-56
2022/04/28 00:07:03;;;;;;;17.25;6.57;;;;;;;5.16;100.00;102996.19;5074357;28;20038;-57
2022/04/28 00:09:29;;;;;;;17.92;6.40;;;;;;;5.15;100.00;102996.19;5072758;28;20103;-56
2022/04/28 00:11:55;;;;;;;16.35;7.15;;;;;;;5.11;100.00;102991.75;5091077;28;20046;-56
2022/04/28 00:14:20;;;;;;;15.95;6.57;;;;;;;5.10;100.00;102993.47;5068892;28;20025;-54
2022/04/28 00:16:46;;;;;;;16.00;6.70;;;;;;;5.11;100.00;102991.75;5086378;28;20024;-57
2022/04/28 00:19:11;;;;;;;14.88;6.68;;;;;;;5.09;100.00;102991.75;5083440;28;20036;-53
2022/04/28 00:21:37;;;;;;;17.08;6.90;;;;;;;5.09;100.00;103000.50;5088214;28;20372;-52
2022/04/28 00:24:02;;;;;;;14.45;6.80;;;;;;;5.10;100.00;102990.84;5108043;28;20509;-55
2022/04/28 00:26:28;;;;;;;14.70;7.38;;;;;;;5.08;100.00;102995.22;5094242;28;20024;-56
2022/04/28 00:28:53;;;;;;;11.10;6.72;;;;;;;5.07;100.00;102985.56;5069011;28;20375;-54
2022/04/28 00:31:18;;;;;;;16.02;6.47;;;;;;;5.07;100.00;102994.31;5081314;28;20068;-55
2022/04/28 00:33:45;;;;;;;17.08;6.55;;;;;;;5.08;100.00;102992.59;5089318;28;20085;-56
2022/04/28 00:36:10;;;;;;;16.83;7.45;;;;;;;5.03;100.00;102978.53;5084510;28;20466;-57
2022/04/28 00:38:35;;;;;;;14.80;6.53;;;;;;;5.01;100.00;102988.13;5087508;28;20513;-58
2022/04/28 00:41:01;;;;;;;16.05;7.10;;;;;;;4.98;100.00;102986.34;5088067;28;20467;-56
2022/04/28 00:43:30;;;;;;;12.35;7.10;;;;;;;4.99;100.00;102989.88;5070906;28;20037;-55
2022/04/28 00:45:56;;;;;;;14.38;6.15;;;;;;;4.97;100.00;102976.69;5091272;28;20059;-54
2022/04/28 00:51:08;;;;;;;16.63;7.60;;;;;;;4.94;100.00;102974.03;5089158;28;20035;-53
2022/04/28 00:53:39;;;;;;;12.50;6.47;;;;;;;4.93;100.00;102985.41;5091730;28;20028;-55
2022/04/28 00:56:05;;;;;;;16.25;6.82;;;;;;;4.91;100.00;102989.72;5096153;28;20581;-53
2022/04/28 00:58:31;;;;;;;15.88;6.97;;;;;;;4.88;100.00;102993.19;5068413;28;20020;-56
2022/04/28 01:00:56;;;;;;;13.48;7.22;;;;;;;4.88;100.00;102993.19;5067928;28;20479;-56
2022/04/28 01:03:23;;;;;;;14.90;7.43;;;;;;;4.86;100.00;102981.81;5091587;28;20039;-56
2022/04/28 01:05:48;;;;;;;16.27;7.05;;;;;;;4.85;100.00;102985.28;5095543;28;20035;-56
2022/04/28 01:08:15;;;;;;;14.48;6.72;;;;;;;4.85;100.00;102987.91;5063136;28;20097;-56
2022/04/28 01:10:40;;;;;;;15.65;7.07;;;;;;;4.83;100.00;102981.75;5074321;28;20052;-58
2022/04/28 01:13:06;;;;;;;13.95;7.15;;;;;;;4.83;100.00;102986.13;5086706;28;20055;-54
2022/04/28 01:15:49;;;;;;;18.05;7.35;;;;;;;4.80;100.00;102979.09;5088466;28;20691;-55
2022/04/28 01:18:16;;;;;;;15.65;6.95;;;;;;;4.78;100.00;102977.31;5089024;28;20109;-55
2022/04/28 01:20:43;;;;;;;15.38;7.70;;;;;;;4.77;100.00;102984.31;5091702;28;20115;-55
2022/04/28 01:23:09;;;;;;;14.70;7.28;;;;;;;4.75;100.00;102983.41;5088261;28;20043;-57
2022/04/28 01:25:35;;;;;;;13.50;7.28;;;;;;;4.72;100.00;102980.75;5093654;28;20089;-56
2022/04/28 01:28:00;;;;;;;15.98;7.32;;;;;;;4.70;100.00;102980.72;5069246;28;20475;-57
2022/04/28 01:30:26;;;;;;;15.23;7.38;;;;;;;4.70;100.00;102985.09;5076271;28;20036;-56
2022/04/28 01:32:53;;;;;;;15.93;7.65;;;;;;;4.67;100.00;102983.31;5091936;28;20430;-57
2022/04/28 01:35:19;;;;;;;18.73;7.97;;;;;;;4.66;100.00;102984.16;5091151;28;20060;-55
2022/04/28 01:37:44;;;;;;;17.80;7.82;;;;;;;4.65;100.00;102984.13;5072377;28;20062;-57
2022/04/28 01:40:13;;;;;;;14.30;7.30;;;;;;;4.65;100.00;102990.25;5091391;28;20125;-55
2022/04/28 01:42:40;;;;;;;16.98;7.65;;;;;;;4.64;100.00;102988.47;5077541;28;20028;-57
2022/04/28 01:45:07;;;;;;;14.98;8.07;;;;;;;4.64;100.00;102991.09;5088276;28;20119;-56
2022/04/28 01:47:33;;;;;;;14.85;7.88;;;;;;;4.65;100.00;102986.75;5069610;28;20024;-54
2022/04/28 01:49:58;;;;;;;14.25;7.78;;;;;;;4.62;100.00;102986.69;5087092;28;20059;-56
2022/04/28 01:55:08;;;;;;;14.48;7.60;;;;;;;4.57;100.00;102977.03;5088399;28;20090;-57
2022/04/28 01:57:33;;;;;;;17.73;7.95;;;;;;;4.56;100.00;102983.13;5064962;28;20455;-58
2022/04/28 01:59:59;;;;;;;16.08;8.48;;;;;;;4.55;100.00;102998.84;5090223;28;20024;-57
2022/04/28 02:02:24;;;;;;;15.55;7.78;;;;;;;4.56;100.00;102988.38;5088865;28;20127;-57
2022/04/28 02:04:50;;;;;;;14.48;7.68;;;;;;;4.54;100.00;102984.88;5089535;28;20442;-56
2022/04/28 02:07:16;;;;;;;16.58;8.27;;;;;;;4.53;100.00;102985.72;5085784;28;20044;-55
2022/04/28 02:09:43;;;;;;;21.25;8.10;;;;;;;4.51;100.00;102986.56;5090578;28;20030;-55
2022/04/28 02:12:09;;;;;;;15.13;8.15;;;;;;;4.48;100.00;102986.53;5090778;28;20028;-55
2022/04/28 02:14:36;;;;;;;14.20;7.85;;;;;;;4.47;100.00;102984.75;5092666;28;20036;-56
2022/04/28 02:17:04;;;;;;;13.60;8.52;;;;;;;4.43;100.00;102982.06;5089324;28;20115;-56
2022/04/28 02:19:30;;;;;;;13.55;8.20;;;;;;;4.43;100.00;102995.19;5090181;28;20250;-55
2022/04/28 02:21:55;;;;;;;15.90;8.25;;;;;;;4.43;100.00;102995.19;5088509;28;20384;-55
2022/04/28 02:24:21;;;;;;;17.00;9.45;;;;;;;4.43;100.00;103003.06;5088560;28;20084;-55
2022/04/28 02:26:46;;;;;;;16.48;8.60;;;;;;;4.43;100.00;102992.56;5073991;28;20020;-55
2022/04/28 02:29:12;;;;;;;14.75;7.78;;;;;;;4.41;100.00;103002.16;5092789;28;20034;-57
2022/04/28 02:31:37;;;;;;;14.63;8.63;;;;;;;4.41;100.00;103001.25;5090710;28;20051;-55
2022/04/28 02:34:03;;;;;;;15.45;8.35;;;;;;;4.39;100.00;103003.00;5086750;28;20391;-52
2022/04/28 02:36:28;;;;;;;16.15;9.02;;;;;;;4.35;100.00;102998.53;5091647;28;20090;-54
2022/04/28 02:38:53;;;;;;;19.77;9.27;;;;;;;4.31;100.00;102988.84;5045645;28;1063184;-54
2022/04/28 02:41:22;;;;;;;17.05;8.23;;;;;;;4.28;100.00;102989.69;5083645;28;20081;-57
2022/04/28 02:43:51;;;;;;;14.30;8.18;;;;;;;4.28;100.00;102992.31;5087036;28;20031;-54
2022/04/28 02:46:18;;;;;;;16.75;8.35;;;;;;;4.27;100.00;102993.16;5097320;28;20399;-56
2022/04/28 02:48:44;;;;;;;15.90;8.50;;;;;;;4.24;100.00;102987.88;5085932;28;20047;-57
2022/04/28 02:51:10;;;;;;;18.00;9.25;;;;;;;4.21;100.00;102986.09;5103771;28;20102;-57
2022/04/28 02:53:36;;;;;;;19.75;8.85;;;;;;;4.22;100.00;102992.22;5071686;28;20074;-57
2022/04/28 02:56:01;;;;;;;19.85;8.50;;;;;;;4.20;100.00;102994.81;5094321;28;20034;-57
2022/04/28 02:58:27;;;;;;;15.02;9.20;;;;;;;4.19;100.00;102997.41;5093612;28;20157;-57
2022/04/28 03:00:52;;;;;;;14.75;8.68;;;;;;;4.14;100.00;102997.34;5089122;28;20432;-57
2022/04/28 03:03:17;;;;;;;16.70;8.85;;;;;;;4.11;100.00;102997.28;5079195;28;20475;-57
2022/04/28 03:11:11;;;;;;;18.30;9.30;;;;;;;4.03;100.00;102991.91;5092769;28;20078;-55
2022/04/28 03:13:36;;;;;;;21.13;9.43;;;;;;;4.02;100.00;102987.53;5075743;28;20032;-55
2022/04/28 03:16:02;;;;;;;17.30;9.20;;;;;;;4.02;100.00;102986.66;5086960;28;20036;-56
2022/04/28 03:18:28;;;;;;;17.83;9.25;;;;;;;4.01;100.00;102987.50;5090791;28;20032;-56
2022/04/28 03:20:54;;;;;;;20.40;9.38;;;;;;;3.98;100.00;102995.31;5091122;28;20537;-55
2022/04/28 03:23:20;;;;;;;14.52;9.05;;;;;;;3.93;100.00;102988.25;5092680;28;20024;-56
2022/04/28 03:25:45;;;;;;;17.65;9.88;;;;;;;3.91;100.00;102991.69;5092345;28;20074;-54
2022/04/28 03:28:11;;;;;;;15.90;9.40;;;;;;;3.90;100.00;102992.53;5073567;28;20475;-54
2022/04/28 03:30:36;;;;;;;18.50;9.88;;;;;;;3.87;100.00;102993.38;5090713;28;20036;-57
2022/04/28 03:33:02;;;;;;;20.88;10.02;;;;;;;3.84;100.00;102993.34;5084779;28;20051;-53
2022/04/28 03:35:27;;;;;;;18.85;9.95;;;;;;;3.82;100.00;102995.03;5091183;28;20028;-54
2022/04/28 03:37:52;;;;;;;17.70;10.00;;;;;;;3.80;100.00;102988.91;5065900;28;20036;-52
2022/04/28 03:40:18;;;;;;;20.08;9.73;;;;;;;3.81;100.00;102989.78;5092081;28;20433;-57
2022/04/28 03:42:44;;;;;;;17.80;10.02;;;;;;;3.79;100.00;102991.50;5073431;28;20052;-56
2022/04/28 03:45:10;;;;;;;22.10;10.63;;;;;;;3.76;100.00;102989.72;5092008;28;20024;-56
2022/04/28 03:47:36;;;;;;;18.30;10.38;;;;;;;3.73;100.00;102984.38;5099643;28;20036;-56
2022/04/28 03:50:06;;;;;;;19.10;10.10;;;;;;;3.72;100.00;102995.72;5076955;28;20039;-54
2022/04/28 03:52:32;;;;;;;16.80;10.00;;;;;;;3.68;100.00;102994.78;5087351;28;20086;-56
2022/04/28 03:54:57;;;;;;;18.30;10.25;;;;;;;3.68;100.00;103001.75;5088336;28;20453;-57
2022/04/28 03:57:23;;;;;;;17.02;9.23;;;;;;;3.67;100.00;102994.75;5087541;28;20493;-55
2022/04/28 03:59:49;;;;;;;16.42;9.88;;;;;;;3.66;100.00;102985.13;5093296;28;20077;-55
2022/04/28 04:02:14;;;;;;;19.35;10.43;;;;;;;3.65;100.00;102986.00;5088987;28;20036;-57
2022/04/28 04:04:40;;;;;;;21.58;10.60;;;;;;;3.63;100.00;102991.19;5073003;28;20039;-56
2022/04/28 04:07:05;;;;;;;20.63;10.43;;;;;;;3.63;100.00;102985.06;5090571;28;20031;-58
2022/04/28 04:09:31;;;;;;;20.90;10.57;;;;;;;3.64;100.00;102987.72;5089645;28;20035;-54
2022/04/28 04:11:56;;;;;;;22.83;10.95;;;;;;;3.63;100.00;102987.69;5088397;28;20046;-52
2022/04/28 04:14:22;;;;;;;23.15;10.55;;;;;;;3.65;100.00;102984.25;5077666;28;20058;-57
2022/04/28 04:16:47;;;;;;;17.70;9.65;;;;;;;3.67;100.00;102993.03;5092832;28;20036;-53
2022/04/28 04:19:12;;;;;;;18.98;10.02;;;;;;;3.67;100.00;102993.03;5079873;28;20491;-57
2022/04/28 04:21:39;;;;;;;19.83;9.88;;;;;;;3.66;100.00;102992.97;5085942;28;20478;-55
2022/04/28 04:24:05;;;;;;;19.38;10.13;;;;;;;3.68;100.00;102996.53;5094258;28;20036;-57
2022/04/28 04:26:30;;;;;;;15.50;9.75;;;;;;;3.74;100.00;103007.13;5108674;28;20028;-58
2022/04/28 04:28:56;;;;;;;20.77;10.10;;;;;;;3.78;100.00;103003.69;5090914;28;20483;-56
2022/04/28 04:34:05;;;;;;;17.85;9.82;;;;;;;3.83;100.00;103011.66;5069180;28;20047;-56
2022/04/28 04:36:30;;;;;;;19.15;8.93;;;;;;;3.85;100.00;103007.31;5068238;28;20047;-53
2022/04/28 04:38:56;;;;;;;21.98;9.50;;;;;;;3.85;100.00;103007.31;5087052;28;20044;-58
2022/04/28 04:41:21;;;;;;;17.95;9.95;;;;;;;3.87;100.00;103014.34;5083274;28;20032;-56
2022/04/28 04:43:46;;;;;;;19.27;9.63;;;;;;;3.96;100.00;103012.75;5064591;28;20115;-57
2022/04/28 04:46:12;;;;;;;20.13;8.93;;;;;;;4.03;100.00;103018.13;5089800;28;20036;-55
2022/04/28 04:48:38;;;;;;;19.35;9.35;;;;;;;4.09;100.00;103020.88;5099048;28;20497;-54
2022/04/28 04:51:03;;;;;;;19.88;9.18;;;;;;;4.13;100.00;103023.53;5091402;28;20028;-56
2022/04/28 04:53:28;;;;;;;18.13;9.45;;;;;;;4.20;100.00;103022.78;5091249;28;20028;-55
2022/04/28 04:55:54;;;;;;;22.75;10.05;;;;;;;4.28;100.00;103033.41;5070217;28;20511;-54
2022/04/28 04:58:19;;;;;;;16.42;9.48;;;;;;;4.35;100.00;103032.63;5085007;28;20214;-57
2022/04/28 05:00:45;;;;;;;19.00;9.68;;;;;;;4.42;100.00;103035.41;5063541;28;20042;-54
2022/04/28 05:03:10;;;;;;;22.27;9.38;;;;;;;4.48;100.00;103044.25;5066035;28;21450;-53
2022/04/28 05:05:35;;;;;;;16.95;9.15;;;;;;;4.57;100.00;103044.38;5080795;28;20035;-54
2022/04/28 05:08:01;;;;;;;19.25;10.27;;;;;;;4.63;100.00;103046.19;5046036;28;20032;-56
2022/04/28 05:10:26;;;;;;;14.75;8.77;;;;;;;4.69;100.00;103036.72;5082894;28;20032;-54
2022/04/28 05:12:52;;;;;;;16.42;9.02;;;;;;;4.75;100.00;103043.78;5086536;28;20028;-52
2022/04/28 05:15:18;;;;;;;20.58;9.38;;;;;;;4.80;100.00;103044.72;5089125;28;20526;-54
2022/04/28 05:17:43;;;;;;;17.80;9.32;;;;;;;4.86;100.00;103049.16;5082538;28;20035;-58
2022/04/28 05:20:09;;;;;;;19.25;8.27;;;;;;;4.88;100.00;103052.72;5089241;28;20025;-58
2022/04/28 05:22:34;;;;;;;15.02;8.05;;;;;;;4.95;100.00;103061.56;5091062;28;20131;-57
2022/04/28 05:25:00;;;;;;;15.13;8.80;;;;;;;5.01;100.00;103053.78;5072706;28;20028;-56
2022/04/28 05:27:25;;;;;;;16.25;8.70;;;;;;;5.09;100.00;103068.78;5086709;28;20032;-55
2022/04/28 05:29:52;;;;;;;14.75;8.13;;;;;;;5.16;100.00;103063.63;5071657;28;20528;-58
2022/04/28 05:32:17;;;;;;;17.30;8.40;;;;;;;5.20;100.00;103063.66;5074068;28;20039;-59
2022/04/28 05:34:42;;;;;;;15.90;8.27;;;;;;;5.25;100.00;103064.59;5093027;28;20071;-57
2022/04/28 05:37:10;;;;;;;18.48;8.73;;;;;;;5.28;100.00;103070.78;5089775;28;20064;-57
2022/04/28 05:39:35;;;;;;;21.55;8.73;;;;;;;5.32;100.00;103081.34;5070409;28;20229;-57
2022/04/28 05:42:01;;;;;;;15.73;7.93;;;;;;;5.35;100.00;103084.00;5093253;28;20126;-57
2022/04/28 05:47:11;;;;;;;17.45;8.75;;;;;;;5.48;100.00;103094.69;5095890;28;20466;-57
2022/04/28 05:49:37;;;;;;;16.92;7.47;;;;;;;5.52;99.38;103094.72;5061598;28;20052;-58
2022/04/28 05:52:03;;;;;;;13.70;7.68;;;;;;;5.58;99.21;103101.81;5082616;28;20036;-58
2022/04/28 05:54:28;;;;;;;17.10;8.35;;;;;;;5.63;99.29;103107.16;5093032;28;20046;-57
2022/04/28 05:56:53;;;;;;;14.00;7.95;;;;;;;5.72;99.03;103115.13;5094316;28;20505;-58
2022/04/28 05:59:19;;;;;;;16.80;9.10;;;;;;;5.80;97.68;103115.22;5094043;28;20036;-58
2022/04/28 06:01:44;;;;;;;18.67;8.32;;;;;;;5.87;96.70;103117.03;5094117;28;20497;-54
2022/04/28 06:04:10;;;;;;;20.50;9.48;;;;;;;5.90;96.49;103111.84;5094091;28;20028;-57
2022/04/28 06:06:36;;;;;;;18.67;8.13;;;;;;;5.96;97.13;103111.91;5081671;28;20020;-57
2022/04/28 06:09:02;;;;;;;17.40;8.32;;;;;;;6.04;96.13;103115.53;5087598;28;20028;-57
2022/04/28 06:11:27;;;;;;;14.75;7.75;;;;;;;6.12;96.19;103118.22;5083457;28;20395;-56
2022/04/28 06:13:53;;;;;;;16.08;7.70;;;;;;;6.18;95.97;103120.94;5093888;28;20043;-57
2022/04/28 06:16:18;;;;;;;13.68;7.50;;;;;;;6.23;94.95;103121.00;5093969;28;20028;-58
2022/04/28 06:18:44;;;;;;;18.58;7.90;;;;;;;6.28;94.95;103121.91;5074586;28;20480;-56
2022/04/28 06:21:09;;;;;;;14.93;7.70;;;;;;;6.38;95.14;103122.88;5084951;28;20025;-58
2022/04/28 06:23:35;;;;;;;15.35;7.55;;;;;;;6.47;94.68;103124.72;5073889;28;20035;-56
2022/04/28 06:26:03;;;;;;;15.65;7.80;;;;;;;6.55;93.75;103133.56;5090665;28;20114;-55
2022/04/28 06:28:28;;;;;;;16.65;7.70;;;;;;;6.72;93.28;103136.34;5087875;28;20031;-55
2022/04/28 06:30:54;;;;;;;17.40;7.43;;;;;;;6.85;91.95;103142.59;5087827;28;20497;-56
2022/04/28 06:33:20;;;;;;;14.88;7.18;;;;;;;6.94;90.26;103141.78;5093609;28;20032;-57
2022/04/28 06:35:45;;;;;;;15.57;7.32;;;;;;;7.01;90.50;103148.88;5094706;28;20376;-58
2022/04/28 06:38:11;;;;;;;18.35;7.03;;;;;;;7.08;89.48;103147.16;5086397;28;20035;-58
2022/04/28 06:40:36;;;;;;;18.83;8.15;;;;;;;7.15;88.74;103148.97;5075461;28;20541;-57
2022/04/28 06:43:01;;;;;;;11.32;6.57;;;;;;;7.12;88.04;103148.94;5086048;28;20082;-57
2022/04/28 06:45:27;;;;;;;13.80;6.45;;;;;;;7.18;88.20;103148.97;5081223;28;20043;-55
2022/04/28 06:47:52;;;;;;;12.45;7.00;;;;;;;7.24;88.21;103148.13;5075013;28;20060;-58
2022/04/28 06:50:18;;;;;;;15.52;7.55;;;;;;;7.37;88.31;103157.88;5111547;28;20118;-56
2022/04/28 06:52:43;;;;;;;12.50;6.45;;;;;;;7.49;87.56;103154.44;5078826;28;20086;-57
2022/04/28 06:55:10;;;;;;;12.48;6.45;;;;;;;7.65;86.47;103160.66;5092998;28;20036;-58
2022/04/28 06:57:36;;;;;;;11.88;6.47;;;;;;;7.69;86.00;103162.44;5092714;28;20036;-58
2022/04/28 07:00:07;;;;;;;14.45;6.28;;;;;;;7.64;85.48;103169.44;5092961;28;20039;-58
2022/04/28 07:02:33;;;;;;;13.80;6.20;;;;;;;7.71;85.82;103160.69;5092624;28;20131;-59
2022/04/28 07:04:58;;;;;;;11.85;5.95;;;;;;;7.81;84.35;103167.78;5092155;28;20476;-58
2022/04/28 07:07:24;;;;;;;10.75;5.95;;;;;;;7.87;84.88;103167.78;5092441;28;20804;-55
2022/04/28 07:09:49;;;;;;;12.93;6.47;;;;;;;8.03;83.26;103165.19;5092870;28;20031;-57
2022/04/28 07:12:15;;;;;;;11.82;6.20;;;;;;;8.12;83.21;103167.00;5092543;28;20020;-57
2022/04/28 07:14:40;;;;;;;14.68;6.30;;;;;;;8.24;84.23;103179.34;5080051;28;20032;-57
2022/04/28 07:17:06;;;;;;;12.38;6.53;;;;;;;8.29;82.82;103181.13;5088501;28;20128;-57
2022/04/28 07:19:31;;;;;;;12.48;6.05;;;;;;;8.39;82.67;103181.13;5112956;28;20844;-58
2022/04/28 07:21:58;;;;;;;12.55;5.68;;;;;;;8.44;82.11;103184.66;5111391;28;20073;-57
2022/04/28 07:24:23;;;;;;;12.38;6.05;;;;;;;8.49;81.54;103189.13;5064702;28;20390;-54
2022/04/28 07:26:49;;;;;;;14.82;5.70;;;;;;;8.59;81.52;103195.28;5087200;28;20111;-58
2022/04/28 07:29:14;;;;;;;17.70;5.72;;;;;;;8.66;79.75;103194.41;5113114;28;20394;-58
2022/04/28 07:31:39;;;;;;;10.48;5.70;;;;;;;8.77;79.34;103194.44;5101168;28;20436;-55
2022/04/28 07:34:05;;;;;;;11.15;4.97;;;;;;;8.90;78.09;103189.13;5086603;28;20394;-58
2022/04/28 07:36:30;;;;;;;13.57;5.30;;;;;;;8.94;78.16;103186.50;5087003;28;20459;-57
2022/04/28 07:38:56;;;;;;;15.23;5.43;;;;;;;9.04;76.97;103194.44;5093446;28;20029;-57
2022/04/28 07:41:21;;;;;;;10.80;5.20;;;;;;;9.02;76.50;103195.31;5091328;28;20081;-58
2022/04/28 07:43:47;;;;;;;10.50;5.03;;;;;;;9.20;77.10;103187.38;5079548;28;20114;-58
2022/04/28 07:46:12;;;;;;;9.88;4.47;;;;;;;9.32;75.82;103193.53;5057145;28;20067;-55
2022/04/28 07:48:37;;;;;;;9.93;4.78;;;;;;;9.41;76.37;103195.28;5091848;28;20031;-57
2022/04/28 07:51:03;;;;;;;11.98;4.40;;;;;;;9.47;73.10;103199.66;5072256;28;20032;-56
2022/04/28 07:53:29;;;;;;;13.27;4.38;;;;;;;9.46;73.41;103203.19;5084826;28;20039;-57
2022/04/28 07:58:38;;;;;;;12.68;4.50;;;;;;;9.82;73.94;103207.50;5094108;28;20109;-57
2022/04/28 08:01:04;;;;;;;11.57;4.22;;;;;;;9.88;71.51;103209.22;5092062;28;20028;-57
2022/04/28 08:03:30;;;;;;;10.13;4.30;;;;;;;9.91;71.77;103208.34;5081528;28;20028;-57
2022/04/28 08:05:55;;;;;;;11.75;4.28;;;;;;;10.06;71.73;103221.50;5073456;28;20107;-57
2022/04/28 08:08:21;;;;;;;11.68;5.03;;;;;;;10.11;71.40;103211.78;5091903;28;20020;-57
2022/04/28 08:10:47;;;;;;;10.70;4.50;;;;;;;10.26;69.71;103216.13;5091852;28;20032;-57
2022/04/28 08:13:12;;;;;;;10.77;4.57;;;;;;;10.35;71.16;103201.94;5091542;28;20030;-57
2022/04/28 08:15:38;;;;;;;10.05;4.65;;;;;;;10.45;70.08;103211.63;5088556;28;20110;-58
2022/04/28 08:18:04;;;;;;;9.30;4.20;;;;;;;10.67;69.42;103213.28;5091025;28;20093;-58
2022/04/28 08:20:30;;;;;;;11.30;4.57;;;;;;;10.85;68.99;103225.50;5073370;28;20028;-57
2022/04/28 08:22:56;;;;;;;8.25;4.07;;;;;;;11.09;68.03;103214.69;5106571;28;20096;-57
2022/04/28 08:25:21;;;;;;;17.35;4.75;;;;;;;11.30;65.55;103223.34;5112303;28;20475;-57
2022/04/28 08:27:47;;;;;;;12.80;4.80;;;;;;;11.29;64.89;103209.19;5096342;28;20032;-58
2022/04/28 08:30:13;;;;;;;8.45;4.40;;;;;;;11.39;65.73;103211.75;5082373;28;20044;-56
2022/04/28 08:32:38;;;;;;;10.00;4.80;;;;;;;11.59;65.59;103214.22;5090283;28;20028;-58
2022/04/28 08:35:07;;;;;;;14.73;4.68;;;;;;;11.69;65.10;103213.22;5085361;28;20088;-57
2022/04/28 08:37:32;;;;;;;9.05;4.32;;;;;;;11.61;64.51;103205.34;5071459;28;20563;-57
2022/04/28 08:39:58;;;;;;;10.40;4.57;;;;;;;11.80;64.70;103206.00;5089816;28;20048;-58
2022/04/28 08:42:26;;;;;;;10.23;4.63;;;;;;;11.85;64.09;103210.38;5095652;28;20040;-58
2022/04/28 08:44:54;;;;;;;10.82;4.43;;;;;;;11.80;64.53;103206.00;5094713;28;20046;-59
2022/04/28 08:47:20;;;;;;;9.98;4.65;;;;;;;12.11;64.03;103204.75;5072526;28;20498;-58
2022/04/28 08:49:49;;;;;;;11.05;4.07;;;;;;;12.71;61.17;103210.97;5089652;28;20024;-58
2022/04/28 08:52:16;;;;;;;11.00;4.75;;;;;;;12.74;60.82;103202.97;5091642;28;20046;-57
2022/04/28 08:54:44;;;;;;;12.35;4.40;;;;;;;12.84;59.81;103203.66;5091556;28;20047;-58
2022/04/28 08:57:09;;;;;;;9.38;4.63;;;;;;;13.02;59.32;103210.44;5089596;28;20028;-58
2022/04/28 08:59:34;;;;;;;9.68;4.97;;;;;;;13.22;59.01;103207.44;5091172;28;20028;-56
2022/04/28 09:02:00;;;;;;;9.80;4.88;;;;;;;13.40;58.82;103208.94;5091601;28;20032;-58
2022/04/28 09:04:27;;;;;;;9.95;4.80;;;;;;;13.24;59.25;103209.19;5070494;28;20032;-58
2022/04/28 09:06:55;;;;;;;10.43;4.30;;;;;;;12.90;58.16;103212.44;5091885;28;20052;-57
2022/04/28 09:09:20;;;;;;;12.73;4.20;;;;;;;12.67;59.84;103204.81;5095082;28;20396;-57
2022/04/28 09:11:47;;;;;;;12.10;4.85;;;;;;;13.14;58.18;103212.03;5094039;28;20055;-58
2022/04/28 09:14:15;;;;;;;11.43;4.18;;;;;;;13.92;55.57;103215.88;5077648;28;20039;-57
2022/04/28 09:16:42;;;;;;;12.05;4.00;;;;;;;14.77;51.60;103202.47;5090351;28;20012;-58
2022/04/28 09:19:10;;;;;;;9.80;4.30;;;;;;;15.36;49.10;103200.94;5113031;28;20019;-58
2022/04/28 09:21:36;;;;;;;9.93;3.55;;;;;;;15.65;45.90;103202.81;5098570;28;20028;-57
2022/04/28 09:24:02;;;;;;;9.43;3.78;;;;;;;15.46;48.28;103196.22;5095366;28;20105;-58
2022/04/28 09:26:29;;;;;;;8.48;3.65;;;;;;;16.22;45.96;103194.91;5094831;28;20020;-58
2022/04/28 09:28:55;;;;;;;8.25;3.97;;;;;;;16.80;43.63;103192.16;5095889;28;20036;-57
2022/04/28 09:31:23;;;;;;;11.85;3.33;;;;;;;17.03;43.34;103195.88;5094957;28;20089;-57
2022/04/28 09:33:49;;;;;;;11.70;3.70;;;;;;;17.52;40.23;103191.44;5094740;28;20427;-57
2022/04/28 09:36:14;;;;;;;9.00;3.85;;;;;;;17.07;40.49;103194.81;5094526;28;20043;-57
2022/04/28 09:38:40;;;;;;;10.30;4.50;;;;;;;16.87;41.22;103198.19;5077510;28;20472;-56
2022/04/28 09:43:56;;;;;;;11.23;4.57;;;;;;;16.61;42.45;103202.59;5093340;28;20050;-57
2022/04/28 09:46:23;;;;;;;9.68;4.22;;;;;;;16.15;43.44;103188.00;5086760;28;20070;-57
2022/04/28 09:48:50;;;;;;;11.07;4.40;;;;;;;17.64;41.23;103190.09;5068192;28;20032;-59
2022/04/28 09:51:21;;;;;;;9.25;4.10;;;;;;;18.05;41.04;103197.53;5085689;28;20482;-58
2022/04/28 09:53:48;;;;;;;10.15;4.40;;;;;;;19.19;37.95;103193.81;5089003;28;20027;-58
2022/04/28 09:56:16;;;;;;;8.15;4.30;;;;;;;19.34;36.07;103203.88;5090957;28;20110;-57
2022/04/28 09:58:41;;;;;;;11.30;4.60;;;;;;;18.37;38.58;103198.06;5091292;28;20031;-58
2022/04/28 10:01:08;;;;;;;10.43;4.43;;;;;;;18.21;39.58;103195.16;5086973;28;20089;-57
2022/04/28 10:03:34;;;;;;;10.98;4.72;;;;;;;18.67;39.08;103195.94;5088814;28;20380;-58
2022/04/28 10:06:03;;;;;;;9.70;4.00;;;;;;;19.13;36.89;103184.19;5090065;28;20089;-57
2022/04/28 10:08:32;;;;;;;9.75;4.65;;;;;;;18.72;37.69;103193.09;5104603;28;20028;-58
2022/04/28 10:11:00;;;;;;;12.70;4.55;;;;;;;19.07;40.03;103179.97;5098398;28;20104;-56
2022/04/28 10:13:28;;;;;;;10.13;4.40;;;;;;;19.05;37.32;103189.03;5090050;28;20039;-56
2022/04/28 10:16:15;;;;;;;9.45;4.55;;;;;;;18.69;38.17;103186.97;5084138;28;20111;-57
2022/04/28 10:18:47;;;;;;;8.73;4.32;;;;;;;18.27;38.50;103191.34;5094548;28;20067;-57
2022/04/28 10:21:16;;;;;;;11.52;5.03;;;;;;;18.41;38.52;103185.41;5097845;28;20035;-54
2022/04/28 10:35:06;;;;;;;8.43;4.15;;;;;;;19.23;36.99;103188.22;5093571;28;20047;-57
2022/04/28 10:37:39;;;;;;;6.68;4.03;;;;;;;18.82;36.51;103186.38;5075330;28;20035;-56
2022/04/28 10:40:05;;;;;;;10.20;4.68;;;;;;;19.10;35.95;103176.28;5091102;28;20044;-55
2022/04/28 10:42:36;;;;;;;9.02;4.43;;;;;;;18.94;36.72;103187.69;5081315;28;20142;-57
2022/04/28 10:45:07;;;;;;;8.38;4.68;;;;;;;19.63;34.04;103183.75;5091349;28;20028;-56
2022/04/28 10:47:37;;;;;;;8.82;4.03;;;;;;;19.35;35.67;103183.25;5093232;28;20149;-56
2022/04/28 10:50:22;;;;;;;7.00;3.83;;;;;;;19.72;35.29;103182.44;5092640;28;20495;-57
2022/04/28 10:52:55;;;;;;;10.43;4.65;;;;;;;19.63;34.78;103174.81;5090318;28;20016;-56
2022/04/28 10:55:23;;;;;;;10.65;4.50;;;;;;;19.64;34.03;103184.59;5093263;28;20042;-57
2022/04/28 10:57:48;;;;;;;9.55;4.20;;;;;;;19.15;36.99;103182.31;5075774;28;20562;-55
2022/04/28 11:00:33;;;;;;;7.53;3.78;;;;;;;19.33;36.18;103180.63;5080389;28;20059;-57
2022/04/28 11:02:59;;;;;;;11.23;4.30;;;;;;;18.66;35.70;103175.41;5080019;28;20387;-57
2022/04/28 11:05:35;;;;;;;9.18;4.20;;;;;;;18.33;36.55;103178.53;5092450;28;20031;-57
2022/04/28 11:08:01;;;;;;;10.13;4.30;;;;;;;18.76;37.10;103178.59;5077403;28;20032;-56
2022/04/28 11:10:28;;;;;;;7.50;3.63;;;;;;;19.88;35.67;103179.06;5085750;28;20123;-53
2022/04/28 11:12:54;;;;;;;9.10;4.60;;;;;;;19.61;35.08;103168.63;5106947;28;20633;-56
2022/04/28 11:15:21;;;;;;;7.57;4.40;;;;;;;19.65;33.95;103170.22;5112061;28;20035;-56
2022/04/28 11:17:47;;;;;;;6.95;3.50;;;;;;;19.44;35.42;103170.28;5101319;28;20064;-56
2022/04/28 11:20:20;;;;;;;8.32;4.07;;;;;;;19.74;33.67;103168.94;5092185;28;20488;-55
2022/04/28 11:22:48;;;;;;;8.13;4.28;;;;;;;20.61;32.40;103174.63;5107243;28;21622;-56
2022/04/28 11:25:16;;;;;;;8.52;4.22;;;;;;;19.86;33.57;103175.56;5106152;28;20020;-55
2022/04/28 11:27:43;;;;;;;9.60;4.28;;;;;;;20.01;33.24;103169.47;5074983;28;20524;-55
2022/04/28 11:30:17;;;;;;;8.70;4.28;;;;;;;19.88;35.51;103177.25;5108585;28;20552;-54
2022/04/28 11:32:56;;;;;;;7.45;4.25;;;;;;;20.26;33.89;103179.91;5091281;28;20020;-54
2022/04/28 11:35:28;;;;;;;9.13;4.50;;;;;;;19.71;36.76;103179.84;5074427;28;20085;-55
2022/04/28 11:37:54;;;;;;;9.88;4.65;;;;;;;20.48;34.36;103168.09;5076831;28;20115;-54
2022/04/28 11:40:22;;;;;;;8.15;4.40;;;;;;;20.00;33.47;103173.13;5099091;28;20058;-52
2022/04/28 11:42:55;;;;;;;9.05;4.90;;;;;;;20.48;33.78;103167.22;5090855;28;20371;-56
2022/04/28 11:45:21;;;;;;;11.85;4.72;;;;;;;19.98;35.20;103161.56;5086174;28;20025;-50
2022/04/28 11:47:46;;;;;;;8.95;4.70;;;;;;;19.63;34.95;103156.88;5099263;28;20032;-55
2022/04/28 11:50:20;;;;;;;11.68;5.50;;;;;;;19.50;34.59;103147.63;5087997;28;20024;-53